Terminal Aerodrome Forecast
Issued by NWS

Home | Current Version | Previous Version | Text Only | Print | Product List | Glossary On
Versions: 1 2 3 4 5 6 7 8 9 10 11 12 13 14 15 16 17 18 19 20 21
000
FTUS43 KFGF 010500 AAA
TAFTVF
TAF AMD
KTVF 010539Z 0106/0206 28004KT 1/4SM FG OVC001
      TEMPO 0106/0110 1SM BR
     FM011200 30009KT P6SM SCT007
     FM012100 30009KT P6SM VCSH BKN050
     FM020100 28006KT P6SM SCT060
      AMD LTD TO CLD VIS AND WIND=

USA.gov is the U.S. government's official web portal to all federal, state and local government web resources and services.